Time;durP1;ratioP1;P1;durP2;ratioP2;P2;SDS_P1;SDS_P2;PMS_P1;PMS_P2;Temp;Humidity;BMP_temperature;BMP_pressure;BME280_temperature;BME280_humidity;BME280_pressure;Samples;Min_cycle;Max_cycle;Signal;HPM_P1;HPM_P2
2023/09/13 00:12:22;;;;;;;;;;;;;;;19.18;86.40;100043.81;665561;1271;128074;-77
2023/09/13 00:27:25;;;;;;;;;;;;;;;19.16;86.88;100034.93;673290;1270;126124;-77
2023/09/13 00:42:29;;;;;;;;;;;;;;;18.97;87.19;100032.34;665482;1270;126795;-77
2023/09/13 00:57:32;;;;;;;;;;;;;;;18.92;86.92;100025.56;665586;1270;126798;-77
2023/09/13 01:12:35;;;;;;;;;;;;;;;18.80;87.49;100028.25;667504;1276;125706;-77
2023/09/13 01:27:56;;;;;;;;;;;;;;;18.66;87.27;100027.79;667290;1267;125516;-76
2023/09/13 01:43:02;;;;;;;;;;;;;;;18.52;87.26;100018.88;667445;1274;126410;-77
2023/09/13 01:58:06;;;;;;;;;;;;;;;18.42;87.68;100016.41;667555;1266;125797;-78
2023/09/13 02:13:09;;;;;;;;;;;;;;;18.23;88.01;100009.15;667605;1275;126523;-78
2023/09/13 02:28:12;;;;;;;;;;;;;;;18.10;87.87;99998.83;667666;1278;126709;-77
2023/09/13 02:43:16;;;;;;;;;;;;;;;17.92;88.62;99997.61;668139;1267;126428;-77
2023/09/13 02:58:19;;;;;;;;;;;;;;;17.79;88.96;99996.37;667841;1266;126674;-77
2023/09/13 03:13:23;;;;;;;;;;;;;;;17.69;88.97;99993.52;667259;1269;126952;-77
2023/09/13 03:28:26;;;;;;;;;;;;;;;17.59;89.09;99995.64;667672;1267;127235;-77
2023/09/13 03:43:30;;;;;;;;;;;;;;;17.48;88.92;99988.84;667930;1266;126277;-77
2023/09/13 03:58:33;;;;;;;;;;;;;;;17.21;90.17;99976.35;667736;1276;126535;-77
2023/09/13 04:13:37;;;;;;;;;;;;;;;17.20;89.72;99970.53;667914;1267;125748;-77
2023/09/13 04:28:41;;;;;;;;;;;;;;;17.29;89.35;99967.42;667863;1266;126166;-78
2023/09/13 04:43:44;;;;;;;;;;;;;;;17.36;89.36;99972.42;668853;1264;126688;-79
2023/09/13 04:58:48;;;;;;;;;;;;;;;17.46;89.81;99985.59;669810;1266;126841;-80
2023/09/13 05:14:11;;;;;;;;;;;;;;;17.50;92.32;99993.71;672194;1261;125942;-78
2023/09/13 05:29:14;;;;;;;;;;;;;;;18.10;90.67;99988.12;670665;1265;126632;-77
2023/09/13 05:44:20;;;;;;;;;;;;;;;18.74;90.08;99985.05;670373;1266;125347;-79
2023/09/13 05:59:24;;;;;;;;;;;;;;;19.34;89.99;99981.69;672091;1267;126675;-78
2023/09/13 06:14:30;;;;;;;;;;;;;;;23.33;87.03;99990.18;670871;1267;125384;-78
2023/09/13 06:29:34;;;;;;;;;;;;;;;27.39;74.73;99986.68;671471;1276;124468;-77
2023/09/13 06:44:37;;;;;;;;;;;;;;;29.96;67.53;99976.04;668485;1261;125279;-78
2023/09/13 06:59:50;;;;;;;;;;;;;;;30.67;61.65;99987.30;672358;1265;125405;-78
2023/09/13 07:14:59;;;;;;;;;;;;;;;31.10;60.38;99993.56;668102;1266;127153;-77
2023/09/13 07:30:09;;;;;;;;;;;;;;;32.14;60.01;100006.95;681974;1261;125235;-78
2023/09/13 07:45:12;;;;;;;;;;;;;;;32.62;57.00;100019.08;682016;1261;125372;-78
2023/09/13 08:00:16;;;;;;;;;;;;;;;32.44;56.53;100028.09;681932;1265;125933;-78
2023/09/13 08:15:19;;;;;;;;;;;;;;;32.56;56.71;100034.01;682081;1265;123975;-77
2023/09/13 08:30:35;;;;;;;;;;;;;;;31.38;58.97;100028.73;682012;1261;124037;-78
2023/09/13 08:45:39;;;;;;;;;;;;;;;33.25;57.46;100019.41;682138;1265;126137;-78
2023/09/13 09:00:45;;;;;;;;;;;;;;;33.44;53.66;100009.03;681984;1262;125588;-77
2023/09/13 09:15:49;;;;;;;;;;;;;;;33.48;52.84;99991.21;681901;1265;124015;-77
2023/09/13 09:30:52;;;;;;;;;;;;;;;34.10;52.15;99980.59;681927;1261;125543;-78
2023/09/13 09:45:56;;;;;;;;;;;;;;;34.66;51.02;99969.95;682056;1265;124223;-78
2023/09/13 10:01:00;;;;;;;;;;;;;;;35.35;50.08;99951.70;681933;1261;124374;-77
2023/09/13 10:16:11;;;;;;;;;;;;;;;35.43;49.25;99936.20;682011;1265;124926;-78
2023/09/13 10:31:25;;;;;;;;;;;;;;;34.52;48.85;99914.00;681904;1262;158969;-78
2023/09/13 10:46:28;;;;;;;;;;;;;;;34.63;48.56;99901.16;681866;1265;124018;-78
2023/09/13 11:01:34;;;;;;;;;;;;;;;34.34;47.83;99896.70;681947;1261;125230;-78
2023/09/13 11:16:39;;;;;;;;;;;;;;;34.63;48.54;99891.80;681766;1261;124002;-78
2023/09/13 11:31:55;;;;;;;;;;;;;;;33.67;50.13;99878.98;682013;1261;125603;-78
2023/09/13 11:47:02;;;;;;;;;;;;;;;33.02;50.79;99870.58;681801;1262;125227;-78
2023/09/13 12:02:08;;;;;;;;;;;;;;;31.99;53.15;99882.00;682008;1264;124178;-77
2023/09/13 12:17:12;;;;;;;;;;;;;;;31.51;54.10;99883.35;681979;1262;124479;-77
2023/09/13 12:32:16;;;;;;;;;;;;;;;31.35;53.52;99887.60;681990;1262;124103;-77
2023/09/13 12:47:19;;;;;;;;;;;;;;;31.98;53.33;99876.44;682042;1265;125106;-77
2023/09/13 13:02:25;;;;;;;;;;;;;;;32.05;52.72;99861.71;682055;1265;123959;-78
2023/09/13 13:17:33;;;;;;;;;;;;;;;32.06;53.35;99837.26;681926;1261;125122;-77
2023/09/13 13:32:38;;;;;;;;;;;;;;;31.76;54.56;99818.70;681959;1262;125642;-78
2023/09/13 13:47:41;;;;;;;;;;;;;;;31.43;55.53;99806.80;681838;1265;124669;-81
2023/09/13 14:02:46;;;;;;;;;;;;;;;31.90;56.68;99803.48;681841;1261;125900;-77
2023/09/13 14:17:49;;;;;;;;;;;;;;;31.82;56.63;99796.79;681972;1263;124977;-78
2023/09/13 14:32:53;;;;;;;;;;;;;;;31.82;56.61;99784.75;681902;1265;126283;-77
2023/09/13 14:47:57;;;;;;;;;;;;;;;31.95;57.34;99796.14;681889;1263;125979;-77
2023/09/13 15:03:03;;;;;;;;;;;;;;;31.71;57.37;99807.48;681971;1273;126371;-77
2023/09/13 15:18:07;;;;;;;;;;;;;;;30.48;59.67;99816.88;681842;1265;124524;-82
2023/09/13 15:33:13;;;;;;;;;;;;;;;29.88;62.04;99817.68;681939;1265;125186;-76
2023/09/13 15:48:17;;;;;;;;;;;;;;;29.68;60.70;99855.27;681702;1265;124885;-76
2023/09/13 16:03:22;;;;;;;;;;;;;;;29.01;61.16;99882.00;681854;1265;124468;-75
2023/09/13 16:18:26;;;;;;;;;;;;;;;28.11;64.57;99891.59;682082;1265;125095;-78
2023/09/13 16:34:41;;;;;;;;;;;;;;;27.05;70.96;99882.96;656139;1298;544165;-79
2023/09/13 16:49:45;;;;;;;;;;;;;;;25.94;76.49;99875.30;668961;1273;123676;-79
2023/09/13 17:04:49;;;;;;;;;;;;;;;25.06;82.56;99875.09;668011;1274;126380;-79
2023/09/13 17:19:52;;;;;;;;;;;;;;;24.68;86.85;99873.36;667716;1284;125556;-78
2023/09/13 17:34:56;;;;;;;;;;;;;;;24.55;86.83;99880.81;671798;1268;125055;-78
2023/09/13 17:49:59;;;;;;;;;;;;;;;24.08;91.70;99899.23;666753;1267;126076;-78
2023/09/13 18:05:04;;;;;;;;;;;;;;;24.04;93.80;99911.99;668397;1268;124732;-78
2023/09/13 18:20:08;;;;;;;;;;;;;;;23.91;94.67;99937.58;667408;1267;124916;-78
2023/09/13 18:35:12;;;;;;;;;;;;;;;23.78;94.93;99953.90;671837;1268;125340;-78
2023/09/13 18:50:18;;;;;;;;;;;;;;;23.62;95.50;99963.36;671827;1268;124556;-77
2023/09/13 19:05:26;;;;;;;;;;;;;;;23.49;94.91;99963.52;668244;1268;125096;-79
2023/09/13 19:20:30;;;;;;;;;;;;;;;23.22;97.42;99969.45;671536;1268;124783;-79
2023/09/13 19:35:38;;;;;;;;;;;;;;;23.09;98.97;99985.45;671650;1278;126674;-78
2023/09/13 19:50:49;;;;;;;;;;;;;;;22.99;99.59;99992.67;671700;1277;125206;-79
2023/09/13 20:05:54;;;;;;;;;;;;;;;22.95;100.00;99991.58;671792;1268;125078;-78
2023/09/13 20:21:01;;;;;;;;;;;;;;;23.14;99.57;99990.63;670855;1268;125363;-79
2023/09/13 20:36:06;;;;;;;;;;;;;;;23.08;100.00;99994.20;671308;1269;124990;-78
2023/09/13 20:51:09;;;;;;;;;;;;;;;23.13;100.00;99998.58;667285;1268;125222;-76
2023/09/13 21:06:13;;;;;;;;;;;;;;;23.14;99.27;100017.34;666608;1269;125278;-77
2023/09/13 21:21:16;;;;;;;;;;;;;;;22.91;98.25;100034.20;670847;1277;125388;-77
2023/09/13 21:36:19;;;;;;;;;;;;;;;22.54;97.79;100048.39;667024;1269;125876;-77
2023/09/13 21:51:22;;;;;;;;;;;;;;;22.18;96.72;100072.02;676394;1267;124198;-77
2023/09/13 22:06:26;;;;;;;;;;;;;;;22.20;96.30;100084.20;666985;1268;125239;-78
2023/09/13 22:21:30;;;;;;;;;;;;;;;22.34;96.56;100096.06;669927;1267;125100;-77
2023/09/13 22:36:33;;;;;;;;;;;;;;;22.36;96.21;100100.30;670655;1271;125426;-77
2023/09/13 22:51:37;;;;;;;;;;;;;;;22.22;96.56;100106.50;667309;1277;125210;-78
2023/09/13 23:06:41;;;;;;;;;;;;;;;22.02;95.68;100117.16;670849;1272;125566;-78
2023/09/13 23:21:44;;;;;;;;;;;;;;;21.99;95.19;100122.55;668364;1263;125136;-77
2023/09/13 23:36:47;;;;;;;;;;;;;;;21.94;96.44;100131.91;666292;1270;126390;-77
2023/09/13 23:51:50;;;;;;;;;;;;;;;21.87;96.73;100134.48;666023;1267;125823;-77
